createdAt,value
2018-12-09T00:00:34.137Z,976.48
2018-12-09T00:01:34.165Z,976.58
2018-12-09T00:02:34.169Z,976.48
2018-12-09T00:03:34.188Z,976.45
2018-12-09T00:04:34.202Z,976.44
2018-12-09T00:05:34.257Z,976.42
2018-12-09T00:06:34.238Z,976.38
2018-12-09T00:07:34.258Z,976.38
2018-12-09T00:08:34.279Z,976.38
2018-12-09T00:09:34.296Z,976.39
2018-12-09T00:10:34.324Z,976.37
2018-12-09T00:11:34.331Z,976.20
2018-12-09T00:12:34.349Z,976.16
2018-12-09T00:13:34.366Z,976.24
2018-12-09T00:14:34.394Z,976.21
2018-12-09T00:15:34.408Z,976.21
2018-12-09T00:16:34.421Z,976.18
2018-12-09T00:17:34.437Z,976.14
2018-12-09T00:18:34.462Z,976.19
2018-12-09T00:19:34.478Z,976.09
2018-12-09T00:20:34.494Z,976.12
2018-12-09T00:21:34.514Z,976.06
2018-12-09T00:22:34.533Z,976.09
2018-12-09T00:23:34.595Z,976.09
2018-12-09T00:24:34.567Z,976.22
2018-12-09T00:25:34.588Z,976.21
2018-12-09T00:26:34.602Z,976.34
2018-12-09T00:27:34.627Z,976.13
2018-12-09T00:28:34.642Z,975.97
2018-12-09T00:29:34.657Z,975.98
2018-12-09T00:30:34.674Z,976.05
2018-12-09T00:31:34.693Z,976.18
2018-12-09T00:32:34.709Z,976.15
2018-12-09T00:33:34.837Z,976.14
2018-12-09T00:34:34.746Z,976.21
2018-12-09T00:35:34.775Z,976.16
2018-12-09T00:36:34.783Z,976.35
2018-12-09T00:37:34.802Z,976.33
2018-12-09T00:38:34.822Z,976.06
2018-12-09T00:39:34.857Z,976.02
2018-12-09T00:40:34.855Z,976.16
2018-12-09T00:41:34.872Z,976.18
2018-12-09T00:42:43.158Z,976.27
2018-12-09T00:43:34.914Z,976.23
2018-12-09T00:44:34.927Z,976.18
2018-12-09T00:45:34.947Z,976.30
2018-12-09T00:46:34.967Z,976.40
2018-12-09T00:47:34.988Z,976.50
2018-12-09T00:48:34.998Z,976.50
2018-12-09T00:49:35.016Z,976.62
2018-12-09T00:50:35.035Z,976.70
2018-12-09T00:51:35.053Z,976.86
2018-12-09T00:52:35.076Z,976.70
2018-12-09T00:53:35.089Z,976.98
2018-12-09T00:54:35.114Z,976.74
2018-12-09T00:55:35.219Z,976.90
2018-12-09T00:56:35.152Z,976.88
2018-12-09T00:57:35.168Z,976.63
2018-12-09T00:58:35.182Z,976.73
2018-12-09T00:59:35.197Z,976.69
2018-12-09T01:00:35.219Z,976.73
2018-12-09T01:01:35.235Z,976.49
2018-12-09T01:02:35.248Z,976.47
2018-12-09T01:03:35.267Z,976.52
2018-12-09T01:04:35.288Z,976.52
2018-12-09T01:05:35.311Z,976.41
2018-12-09T01:06:35.318Z,976.50
2018-12-09T01:07:35.338Z,976.52
2018-12-09T01:08:35.356Z,976.59
2018-12-09T01:09:35.380Z,976.59
2018-12-09T01:10:35.395Z,976.56
2018-12-09T01:11:35.409Z,976.69
2018-12-09T01:12:35.424Z,976.53
2018-12-09T01:13:35.444Z,976.57
2018-12-09T01:14:35.461Z,976.54
2018-12-09T01:15:35.481Z,976.61
2018-12-09T01:16:35.495Z,976.70
2018-12-09T01:17:35.516Z,976.61
2018-12-09T01:18:35.664Z,976.68
2018-12-09T01:19:35.563Z,976.74
2018-12-09T01:20:35.568Z,976.71
2018-12-09T01:21:35.582Z,976.74
2018-12-09T01:22:35.606Z,976.72
2018-12-09T01:23:35.656Z,976.67
2018-12-09T01:24:35.649Z,976.66
2018-12-09T01:25:35.658Z,976.64
2018-12-09T01:26:35.673Z,976.67
2018-12-09T01:27:35.689Z,976.64
2018-12-09T01:28:35.711Z,976.69
2018-12-09T01:29:35.730Z,976.67
2018-12-09T01:30:35.743Z,976.61
2018-12-09T01:31:35.769Z,976.63
2018-12-09T01:32:35.773Z,976.63
2018-12-09T01:33:35.918Z,976.68
2018-12-09T01:34:35.811Z,976.71
2018-12-09T01:35:35.842Z,976.71
2018-12-09T01:36:35.855Z,976.82
2018-12-09T01:37:35.862Z,976.74
2018-12-09T01:38:35.880Z,976.70
2018-12-09T01:39:35.960Z,976.63
2018-12-09T01:40:35.935Z,976.66
2018-12-09T01:41:35.936Z,976.69
2018-12-09T01:42:35.950Z,976.70
2018-12-09T01:43:35.969Z,976.78
2018-12-09T01:44:35.989Z,976.69
2018-12-09T01:45:36.011Z,976.69
2018-12-09T01:46:36.017Z,976.82
2018-12-09T01:47:36.036Z,976.66
2018-12-09T01:48:36.056Z,976.72
2018-12-09T01:49:36.070Z,976.74
2018-12-09T01:50:36.089Z,976.82
2018-12-09T01:51:36.103Z,976.71
2018-12-09T01:52:36.134Z,976.70
2018-12-09T01:53:36.144Z,976.80
2018-12-09T01:54:36.162Z,976.74
2018-12-09T01:55:36.182Z,976.82
2018-12-09T01:56:36.191Z,976.80
2018-12-09T01:57:36.207Z,976.81
2018-12-09T01:58:36.233Z,976.76
2018-12-09T01:59:36.246Z,976.83
2018-12-09T02:00:36.265Z,976.81
2018-12-09T02:01:36.290Z,976.80
2018-12-09T02:02:36.297Z,976.79
2018-12-09T02:03:36.313Z,976.84
2018-12-09T02:04:36.334Z,976.82
2018-12-09T02:05:36.354Z,976.78
2018-12-09T02:06:36.368Z,976.76
2018-12-09T02:07:36.384Z,976.76
2018-12-09T02:08:36.407Z,976.58
2018-12-09T02:09:36.417Z,976.62
2018-12-09T02:10:36.445Z,976.70
2018-12-09T02:11:36.553Z,976.80
2018-12-09T02:12:36.477Z,976.76
2018-12-09T02:13:36.487Z,976.85
2018-12-09T02:14:36.515Z,976.79
2018-12-09T02:15:36.523Z,976.82
2018-12-09T02:16:36.539Z,976.93
2018-12-09T02:17:36.558Z,976.66
2018-12-09T02:18:36.587Z,976.77
2018-12-09T02:19:36.592Z,976.75
2018-12-09T02:20:36.624Z,976.75
2018-12-09T02:21:36.631Z,976.78
2018-12-09T02:22:36.648Z,976.72
2018-12-09T02:23:36.664Z,976.74
2018-12-09T02:24:36.680Z,976.68
2018-12-09T02:25:36.703Z,976.69
2018-12-09T02:26:36.711Z,976.70
2018-12-09T02:27:36.730Z,976.76
2018-12-09T02:28:36.761Z,976.76
2018-12-09T02:29:36.762Z,976.73
2018-12-09T02:30:36.788Z,976.66
2018-12-09T02:31:36.840Z,976.75
2018-12-09T02:32:36.814Z,976.77
2018-12-09T02:33:36.839Z,976.80
2018-12-09T02:34:36.861Z,976.80
2018-12-09T02:35:36.865Z,976.82
2018-12-09T02:36:36.886Z,976.70
2018-12-09T02:37:36.905Z,976.76
2018-12-09T02:38:36.924Z,976.87
2018-12-09T02:39:36.936Z,976.79
2018-12-09T02:40:36.954Z,976.85
2018-12-09T02:41:36.972Z,976.84
2018-12-09T02:42:36.991Z,976.90
2018-12-09T02:43:37.010Z,976.82
2018-12-09T02:44:37.027Z,976.75
2018-12-09T02:45:37.042Z,976.83
2018-12-09T02:46:37.103Z,976.84
2018-12-09T02:47:37.082Z,976.77
2018-12-09T02:48:37.096Z,976.80
2018-12-09T02:49:37.113Z,976.81
2018-12-09T02:50:37.136Z,976.83
2018-12-09T02:51:37.150Z,976.78
2018-12-09T02:52:37.162Z,976.80
2018-12-09T02:53:37.176Z,976.73
2018-12-09T02:54:37.200Z,976.81
2018-12-09T02:55:37.211Z,976.84
2018-12-09T02:56:37.232Z,976.75
2018-12-09T02:57:37.245Z,976.79
2018-12-09T02:58:37.262Z,976.82
2018-12-09T02:59:37.288Z,976.74
2018-12-09T03:00:37.299Z,976.74
2018-12-09T03:01:37.317Z,976.78
2018-12-09T03:02:37.338Z,976.85
2018-12-09T03:03:37.349Z,976.77
2018-12-09T03:04:37.365Z,976.91
2018-12-09T03:05:37.387Z,976.89
2018-12-09T03:06:37.401Z,976.82
2018-12-09T03:07:37.420Z,976.97
2018-12-09T03:08:37.433Z,976.86
2018-12-09T03:09:37.455Z,976.90
2018-12-09T03:10:37.476Z,976.93
2018-12-09T03:11:37.493Z,976.97
2018-12-09T03:12:37.545Z,976.82
2018-12-09T03:13:37.525Z,976.80
2018-12-09T03:14:37.557Z,976.95
2018-12-09T03:15:37.560Z,976.92
2018-12-09T03:16:37.570Z,976.88
2018-12-09T03:17:37.624Z,976.91
2018-12-09T03:18:37.609Z,976.91
2018-12-09T03:19:37.628Z,976.92
2018-12-09T03:20:37.639Z,977.03
2018-12-09T03:21:37.664Z,976.95
2018-12-09T03:22:37.678Z,976.96
2018-12-09T03:23:37.713Z,976.95
2018-12-09T03:24:37.716Z,976.88
2018-12-09T03:25:37.731Z,976.80
2018-12-09T03:26:37.745Z,976.89
2018-12-09T03:27:37.768Z,976.96
2018-12-09T03:28:37.781Z,977.06
2018-12-09T03:29:37.812Z,977.05
2018-12-09T03:30:37.852Z,977.12
2018-12-09T03:31:37.849Z,977.17
2018-12-09T03:32:38.022Z,977.15
2018-12-09T03:33:37.871Z,976.99
2018-12-09T03:34:37.905Z,976.91
2018-12-09T03:35:37.906Z,976.95
2018-12-09T03:36:37.921Z,976.98
2018-12-09T03:37:37.943Z,977.02
2018-12-09T03:38:37.967Z,977.08
2018-12-09T03:39:37.980Z,977.03
2018-12-09T03:40:37.995Z,976.98
2018-12-09T03:41:38.023Z,976.93
2018-12-09T03:42:38.024Z,977.13
2018-12-09T03:43:38.047Z,977.01
2018-12-09T03:44:38.060Z,977.07
2018-12-09T03:45:38.079Z,977.02
2018-12-09T03:46:38.094Z,977.05
2018-12-09T03:47:38.125Z,977.04
2018-12-09T03:48:38.129Z,977.05
2018-12-09T03:49:38.143Z,977.06
2018-12-09T03:50:38.157Z,977.12
2018-12-09T03:51:38.178Z,977.09
2018-12-09T03:52:38.214Z,977.17
2018-12-09T03:53:38.218Z,977.30
2018-12-09T03:54:38.234Z,977.32
2018-12-09T03:55:38.254Z,977.31
2018-12-09T03:56:38.273Z,977.30
2018-12-09T03:57:38.291Z,977.25
2018-12-09T03:58:39.340Z,977.18
2018-12-09T03:59:38.324Z,977.19
2018-12-09T04:00:38.331Z,977.21
2018-12-09T04:01:38.352Z,977.22
2018-12-09T04:02:38.378Z,977.27
2018-12-09T04:03:38.388Z,977.23
2018-12-09T04:04:38.415Z,977.30
2018-12-09T04:05:38.421Z,977.24
2018-12-09T04:06:38.453Z,977.15
2018-12-09T04:07:38.475Z,977.11
2018-12-09T04:08:38.471Z,977.19
2018-12-09T04:09:38.487Z,977.19
2018-12-09T04:10:38.508Z,977.20
2018-12-09T04:11:38.526Z,977.25
2018-12-09T04:12:38.545Z,977.23
2018-12-09T04:13:38.564Z,977.37
2018-12-09T04:14:38.580Z,977.22
2018-12-09T04:15:38.604Z,977.27
2018-12-09T04:16:38.618Z,977.19
2018-12-09T04:17:38.642Z,977.28
2018-12-09T04:18:38.646Z,977.27
2018-12-09T04:19:38.661Z,977.38
2018-12-09T04:20:38.710Z,977.45
2018-12-09T04:21:38.695Z,977.38
2018-12-09T04:22:38.715Z,977.36
2018-12-09T04:23:38.729Z,977.40
2018-12-09T04:24:38.753Z,977.38
2018-12-09T04:25:38.767Z,977.37
2018-12-09T04:26:38.780Z,977.45
2018-12-09T04:27:38.798Z,977.35
2018-12-09T04:28:38.813Z,977.38
2018-12-09T04:29:38.841Z,977.44
2018-12-09T04:30:38.861Z,977.48
2018-12-09T04:31:38.870Z,977.51
2018-12-09T04:32:38.891Z,977.51
2018-12-09T04:33:38.908Z,977.44
2018-12-09T04:34:38.922Z,977.52
2018-12-09T04:35:38.952Z,977.51
2018-12-09T04:36:38.961Z,977.46
2018-12-09T04:37:38.974Z,977.34
2018-12-09T04:38:39.003Z,977.35
2018-12-09T04:39:39.012Z,977.45
2018-12-09T04:40:39.035Z,977.44
2018-12-09T04:41:39.048Z,977.44
2018-12-09T04:42:39.061Z,977.54
2018-12-09T04:43:39.076Z,977.46
2018-12-09T04:44:39.097Z,977.41
2018-12-09T04:45:39.112Z,977.39
2018-12-09T04:46:39.130Z,977.40
2018-12-09T04:47:39.153Z,977.40
2018-12-09T04:48:39.163Z,977.46
2018-12-09T04:49:39.177Z,977.42
2018-12-09T04:50:39.196Z,977.40
2018-12-09T04:51:39.215Z,977.46
2018-12-09T04:52:39.234Z,977.39
2018-12-09T04:53:39.257Z,977.50
2018-12-09T04:54:39.268Z,977.49
2018-12-09T04:55:39.284Z,977.54
2018-12-09T04:56:39.301Z,977.42
2018-12-09T04:57:39.326Z,977.55
2018-12-09T04:58:39.340Z,977.57
2018-12-09T04:59:39.350Z,977.55
2018-12-09T05:00:39.366Z,977.62
2018-12-09T05:01:39.389Z,977.57
2018-12-09T05:02:39.415Z,977.59
2018-12-09T05:03:39.425Z,977.57
2018-12-09T05:04:39.443Z,977.55
2018-12-09T05:05:39.454Z,977.45
2018-12-09T05:06:39.480Z,977.44
2018-12-09T05:07:39.506Z,977.48
2018-12-09T05:08:39.506Z,977.62
2018-12-09T05:09:39.534Z,977.59
2018-12-09T05:10:39.548Z,977.62
2018-12-09T05:11:39.565Z,977.62
2018-12-09T05:12:39.607Z,977.58
2018-12-09T05:13:39.597Z,977.70
2018-12-09T05:14:39.622Z,977.59
2018-12-09T05:15:39.643Z,977.67
2018-12-09T05:16:39.789Z,977.63
2018-12-09T05:17:39.668Z,977.64
2018-12-09T05:18:39.689Z,977.60
2018-12-09T05:19:39.702Z,977.65
2018-12-09T05:20:39.718Z,977.65
2018-12-09T05:21:39.741Z,977.68
2018-12-09T05:22:39.757Z,977.57
2018-12-09T05:23:39.779Z,977.54
2018-12-09T05:24:39.796Z,977.53
2018-12-09T05:25:39.815Z,977.60
2018-12-09T05:26:39.891Z,977.59
2018-12-09T05:27:39.848Z,977.63
2018-12-09T05:28:39.857Z,977.65
2018-12-09T05:29:39.879Z,977.65
2018-12-09T05:30:39.894Z,977.67
2018-12-09T05:31:39.911Z,977.65
2018-12-09T05:32:39.932Z,977.63
2018-12-09T05:33:39.959Z,977.60
2018-12-09T05:34:39.964Z,977.66
2018-12-09T05:35:39.979Z,977.68
2018-12-09T05:36:39.995Z,977.60
2018-12-09T05:37:40.015Z,977.56
2018-12-09T05:38:40.034Z,977.64
2018-12-09T05:39:40.054Z,977.61
2018-12-09T05:40:40.061Z,977.67
2018-12-09T05:41:40.083Z,977.67
2018-12-09T05:42:40.117Z,977.75
2018-12-09T05:43:40.128Z,977.77
2018-12-09T05:44:40.131Z,977.70
2018-12-09T05:45:40.159Z,977.76
2018-12-09T05:46:40.174Z,977.74
2018-12-09T05:47:40.185Z,977.74
2018-12-09T05:48:40.210Z,977.72
2018-12-09T05:49:40.218Z,977.70
2018-12-09T05:50:40.235Z,977.69
2018-12-09T05:51:40.255Z,977.70
2018-12-09T05:52:40.269Z,977.85
2018-12-09T05:53:40.286Z,977.78
2018-12-09T05:54:40.307Z,977.81
2018-12-09T05:55:40.325Z,977.82
2018-12-09T05:56:40.335Z,977.79
2018-12-09T05:57:40.359Z,977.93
2018-12-09T05:58:40.377Z,977.85
2018-12-09T05:59:40.389Z,977.95
2018-12-09T06:00:40.405Z,977.98
2018-12-09T06:01:40.421Z,977.90
2018-12-09T06:02:40.452Z,977.85
2018-12-09T06:03:40.457Z,977.94
2018-12-09T06:04:40.477Z,978.03
2018-12-09T06:05:40.491Z,978.06
2018-12-09T06:06:40.511Z,978.00
2018-12-09T06:07:40.542Z,977.95
2018-12-09T06:08:40.685Z,977.98
2018-12-09T06:09:40.561Z,977.94
2018-12-09T06:10:40.584Z,977.97
2018-12-09T06:11:40.595Z,978.04
2018-12-09T06:12:40.614Z,978.01
2018-12-09T06:13:40.635Z,977.96
2018-12-09T06:14:40.657Z,978.00
2018-12-09T06:15:40.666Z,978.00
2018-12-09T06:16:40.682Z,977.96
2018-12-09T06:17:40.697Z,978.05
2018-12-09T06:18:40.718Z,978.16
2018-12-09T06:19:40.734Z,978.13
2018-12-09T06:20:40.758Z,978.09
2018-12-09T06:21:40.774Z,977.98
2018-12-09T06:22:40.790Z,977.88
2018-12-09T06:23:40.809Z,977.87
2018-12-09T06:24:40.821Z,977.95
2018-12-09T06:25:40.850Z,978.01
2018-12-09T06:26:40.891Z,977.83
2018-12-09T06:27:40.874Z,977.95
2018-12-09T06:28:40.897Z,978.03
2018-12-09T06:29:40.908Z,978.03
2018-12-09T06:30:40.922Z,978.11
2018-12-09T06:31:40.948Z,978.07
2018-12-09T06:32:40.955Z,978.01
2018-12-09T06:33:40.973Z,978.06
2018-12-09T06:34:40.997Z,978.13
2018-12-09T06:35:41.017Z,978.19
2018-12-09T06:36:41.027Z,978.25
2018-12-09T06:37:41.047Z,978.12
2018-12-09T06:38:41.066Z,978.12
2018-12-09T06:39:41.076Z,977.92
2018-12-09T06:40:41.101Z,977.96
2018-12-09T06:41:41.113Z,978.00
2018-12-09T06:42:41.149Z,977.94
2018-12-09T06:43:41.164Z,977.98
2018-12-09T06:44:41.179Z,977.99
2018-12-09T06:45:41.190Z,977.96
2018-12-09T06:46:41.208Z,978.03
2018-12-09T06:47:41.222Z,978.04
2018-12-09T06:48:41.241Z,978.06
2018-12-09T06:49:41.255Z,978.15
2018-12-09T06:50:41.270Z,978.08
2018-12-09T06:51:41.302Z,978.15
2018-12-09T06:52:41.304Z,978.19
2018-12-09T06:53:41.321Z,978.21
2018-12-09T06:54:41.339Z,978.29
2018-12-09T06:55:41.360Z,978.31
2018-12-09T06:56:41.373Z,978.26
2018-12-09T06:57:41.387Z,978.28
2018-12-09T06:58:41.406Z,978.35
2018-12-09T06:59:41.420Z,978.32
2018-12-09T07:00:41.442Z,978.32
2018-12-09T07:01:41.462Z,978.27
2018-12-09T07:02:41.494Z,978.27
2018-12-09T07:03:41.501Z,978.28
2018-12-09T07:04:41.512Z,978.34
2018-12-09T07:05:41.528Z,978.33
2018-12-09T07:06:41.599Z,978.43
2018-12-09T07:07:41.566Z,978.50
2018-12-09T07:08:41.582Z,978.54
2018-12-09T07:09:41.603Z,978.49
2018-12-09T07:10:41.625Z,978.52
2018-12-09T07:11:41.638Z,978.57
2018-12-09T07:12:41.648Z,978.54
2018-12-09T07:13:41.670Z,978.51
2018-12-09T07:14:41.685Z,978.59
2018-12-09T07:15:41.700Z,978.54
2018-12-09T07:16:41.722Z,978.56
2018-12-09T07:17:41.738Z,978.55
2018-12-09T07:18:41.774Z,978.57
2018-12-09T07:19:41.771Z,978.57
2018-12-09T07:20:41.786Z,978.56
2018-12-09T07:21:41.811Z,978.62
2018-12-09T07:22:41.822Z,978.59
2018-12-09T07:23:41.838Z,978.57
2018-12-09T07:24:41.853Z,978.73
2018-12-09T07:25:41.875Z,978.65
2018-12-09T07:26:41.899Z,978.63
2018-12-09T07:27:41.908Z,978.77
2018-12-09T07:28:41.927Z,978.80
2018-12-09T07:29:41.967Z,978.79
2018-12-09T07:30:41.967Z,978.62
2018-12-09T07:31:41.982Z,978.71
2018-12-09T07:32:41.996Z,978.77
2018-12-09T07:33:42.018Z,978.80
2018-12-09T07:34:42.045Z,978.76
2018-12-09T07:35:42.059Z,978.73
2018-12-09T07:36:42.066Z,978.83
2018-12-09T07:37:42.091Z,978.77
2018-12-09T07:38:42.099Z,978.79
2018-12-09T07:39:42.120Z,978.72
2018-12-09T07:40:42.245Z,978.84
2018-12-09T07:41:42.151Z,978.95
2018-12-09T07:42:42.169Z,978.80
2018-12-09T07:43:42.212Z,978.97
2018-12-09T07:44:42.211Z,978.90
2018-12-09T07:45:42.223Z,978.92
2018-12-09T07:46:42.239Z,979.01
2018-12-09T07:47:42.259Z,979.07
2018-12-09T07:48:42.294Z,979.08
2018-12-09T07:49:42.295Z,979.04
2018-12-09T07:50:42.311Z,979.15
2018-12-09T07:51:42.332Z,979.17
2018-12-09T07:52:42.353Z,979.29
2018-12-09T07:53:42.360Z,979.32
2018-12-09T07:54:42.398Z,979.14
2018-12-09T07:55:42.409Z,979.32
2018-12-09T07:56:42.428Z,979.39
2018-12-09T07:57:42.431Z,979.16
2018-12-09T07:58:42.445Z,979.28
2018-12-09T07:59:42.466Z,979.24
2018-12-09T08:00:42.482Z,979.17
2018-12-09T08:01:42.506Z,979.21
2018-12-09T08:02:42.531Z,979.23
2018-12-09T08:03:42.543Z,979.31
2018-12-09T08:04:42.551Z,979.32
2018-12-09T08:05:42.581Z,979.32
2018-12-09T08:06:42.588Z,979.34
2018-12-09T08:07:42.604Z,979.24
2018-12-09T08:08:42.625Z,979.34
2018-12-09T08:09:42.643Z,979.31
2018-12-09T08:10:42.661Z,979.30
2018-12-09T08:11:42.675Z,979.34
2018-12-09T08:12:42.696Z,979.30
2018-12-09T08:13:42.710Z,979.42
2018-12-09T08:14:42.730Z,979.47
2018-12-09T08:15:42.754Z,979.33
2018-12-09T08:16:42.771Z,979.56
2018-12-09T08:17:42.780Z,979.48
2018-12-09T08:18:42.798Z,979.45
2018-12-09T08:19:42.818Z,979.48
2018-12-09T08:20:42.847Z,979.50
2018-12-09T08:21:42.857Z,979.55
2018-12-09T08:22:42.870Z,979.55
2018-12-09T08:23:42.884Z,979.53
2018-12-09T08:24:42.901Z,979.50
2018-12-09T08:25:42.939Z,979.59
2018-12-09T08:26:42.949Z,979.51
2018-12-09T08:27:42.954Z,979.60
2018-12-09T08:28:43.001Z,979.70
2018-12-09T08:29:42.987Z,979.67
2018-12-09T08:30:43.010Z,979.55
2018-12-09T08:31:43.024Z,979.71
2018-12-09T08:32:43.044Z,979.66
2018-12-09T08:33:43.059Z,979.56
2018-12-09T08:34:43.091Z,979.69
2018-12-09T08:35:43.097Z,979.58
2018-12-09T08:36:43.110Z,979.65
2018-12-09T08:37:43.128Z,979.67
2018-12-09T08:38:43.152Z,979.66
2018-12-09T08:39:43.170Z,979.74
2018-12-09T08:40:43.182Z,979.67
2018-12-09T08:41:43.198Z,979.65
2018-12-09T08:42:43.218Z,979.67
2018-12-09T08:43:43.242Z,979.72
2018-12-09T08:44:43.258Z,979.68
2018-12-09T08:45:43.269Z,979.65
2018-12-09T08:46:43.288Z,979.78
2018-12-09T08:47:43.323Z,979.65
2018-12-09T08:48:43.334Z,979.72
2018-12-09T08:49:43.353Z,979.69
2018-12-09T08:50:43.359Z,979.77
2018-12-09T08:51:43.395Z,979.77
2018-12-09T08:52:43.392Z,979.74
2018-12-09T08:53:43.433Z,979.75
2018-12-09T08:54:43.436Z,979.73
2018-12-09T08:55:43.462Z,979.80
2018-12-09T08:56:43.467Z,979.85
2018-12-09T08:57:43.483Z,979.88
2018-12-09T08:58:43.497Z,979.86
2018-12-09T08:59:43.518Z,979.85
2018-12-09T09:00:43.533Z,979.88
2018-12-09T09:01:43.617Z,979.82
2018-12-09T09:02:43.567Z,979.84
2018-12-09T09:03:43.595Z,979.84
2018-12-09T09:04:43.619Z,979.80
2018-12-09T09:05:43.622Z,979.85
2018-12-09T09:06:43.651Z,979.90
2018-12-09T09:07:43.661Z,979.82
2018-12-09T09:08:43.673Z,979.89
2018-12-09T09:09:43.694Z,979.95
2018-12-09T09:10:43.715Z,979.90
2018-12-09T09:11:43.728Z,979.94
2018-12-09T09:12:43.745Z,979.83
2018-12-09T09:13:43.765Z,980.00
2018-12-09T09:14:43.779Z,979.92
2018-12-09T09:15:43.798Z,980.02
2018-12-09T09:16:43.815Z,980.03
2018-12-09T09:17:43.831Z,980.13
2018-12-09T09:18:43.855Z,980.10
2018-12-09T09:19:43.904Z,980.10
2018-12-09T09:20:43.885Z,980.04
2018-12-09T09:21:43.918Z,980.10
2018-12-09T09:22:43.925Z,980.14
2018-12-09T09:23:43.938Z,980.09
2018-12-09T09:24:43.955Z,980.18
2018-12-09T09:25:43.973Z,980.12
2018-12-09T09:26:43.990Z,980.23
2018-12-09T09:27:44.008Z,980.23
2018-12-09T09:28:44.030Z,980.28
2018-12-09T09:29:44.055Z,980.39
2018-12-09T09:30:44.067Z,980.28
2018-12-09T09:31:44.076Z,980.45
2018-12-09T09:32:44.100Z,980.44
2018-12-09T09:33:44.975Z,980.49
2018-12-09T09:34:44.129Z,980.56
2018-12-09T09:35:44.164Z,980.56
2018-12-09T09:36:44.171Z,980.65
2018-12-09T09:37:44.186Z,980.61
2018-12-09T09:38:44.200Z,980.65
2018-12-09T09:39:44.233Z,980.79
2018-12-09T09:40:44.238Z,980.71
2018-12-09T09:41:44.254Z,980.76
2018-12-09T09:42:44.279Z,980.85
2018-12-09T09:43:44.287Z,980.96
2018-12-09T09:44:44.304Z,980.94
2018-12-09T09:45:44.323Z,980.98
2018-12-09T09:46:44.341Z,980.95
2018-12-09T09:47:44.358Z,980.99
2018-12-09T09:48:44.380Z,981.06
2018-12-09T09:49:44.394Z,980.89
2018-12-09T09:50:44.409Z,980.93
2018-12-09T09:51:44.448Z,980.94
2018-12-09T09:52:44.461Z,981.01
2018-12-09T09:53:44.463Z,980.97
2018-12-09T09:54:44.480Z,981.00
2018-12-09T09:55:44.502Z,981.03
2018-12-09T09:56:44.516Z,981.05
2018-12-09T09:57:44.543Z,981.04
2018-12-09T09:58:44.554Z,981.00
2018-12-09T09:59:44.568Z,981.11
2018-12-09T10:00:44.603Z,981.18
2018-12-09T10:01:44.603Z,981.09
2018-12-09T10:02:44.622Z,981.14
2018-12-09T10:03:44.640Z,981.17
2018-12-09T10:04:44.660Z,981.21
2018-12-09T10:05:44.689Z,981.14
2018-12-09T10:06:44.693Z,981.19
2018-12-09T10:07:44.726Z,981.20
2018-12-09T10:08:44.734Z,981.18
2018-12-09T10:09:44.747Z,981.18
2018-12-09T10:10:44.769Z,981.23
2018-12-09T10:11:44.831Z,981.23
2018-12-09T10:12:44.822Z,981.23
2018-12-09T10:13:44.817Z,981.27
2018-12-09T10:14:44.834Z,981.29
2018-12-09T10:15:44.859Z,981.25
2018-12-09T10:16:44.873Z,981.30
2018-12-09T10:17:44.888Z,981.35
2018-12-09T10:18:44.921Z,981.35
2018-12-09T10:19:44.926Z,981.38
2018-12-09T10:20:44.945Z,981.42
2018-12-09T10:21:45.011Z,981.41
2018-12-09T10:22:44.978Z,981.44
2018-12-09T10:23:44.994Z,981.54
2018-12-09T10:24:45.013Z,981.48
2018-12-09T10:25:45.037Z,981.47
2018-12-09T10:26:45.048Z,981.59
2018-12-09T10:27:45.073Z,981.61
2018-12-09T10:28:45.097Z,981.62
2018-12-09T10:29:45.111Z,981.68
2018-12-09T10:30:45.121Z,981.72
2018-12-09T10:31:45.139Z,981.75
2018-12-09T10:32:45.161Z,981.68
2018-12-09T10:33:45.187Z,981.60
2018-12-09T10:34:45.194Z,981.61
2018-12-09T10:35:45.214Z,981.66
2018-12-09T10:36:45.227Z,981.56
2018-12-09T10:37:45.249Z,981.56
2018-12-09T10:38:45.269Z,981.57
2018-12-09T10:39:45.284Z,981.59
2018-12-09T10:40:45.304Z,981.64
2018-12-09T10:41:45.321Z,981.71
2018-12-09T10:42:45.337Z,981.70
2018-12-09T10:43:45.353Z,981.79
2018-12-09T10:44:45.373Z,981.71
2018-12-09T10:45:45.389Z,981.71
2018-12-09T10:46:45.421Z,981.74
2018-12-09T10:47:45.431Z,981.75
2018-12-09T10:48:45.446Z,981.75
2018-12-09T10:49:45.464Z,981.80
2018-12-09T10:50:45.489Z,981.85
2018-12-09T10:51:45.501Z,981.84
2018-12-09T10:52:45.526Z,981.88
2018-12-09T10:53:45.531Z,981.91
2018-12-09T10:54:45.555Z,981.91
2018-12-09T10:55:45.574Z,981.91
2018-12-09T10:56:45.594Z,981.90
2018-12-09T10:57:45.606Z,981.92
2018-12-09T10:58:45.747Z,981.95
2018-12-09T10:59:45.639Z,981.90
2018-12-09T11:00:45.661Z,981.88
2018-12-09T11:01:45.677Z,981.90
2018-12-09T11:02:45.696Z,981.98
2018-12-09T11:03:45.718Z,981.88
2018-12-09T11:04:45.730Z,981.94
2018-12-09T11:05:45.754Z,981.87
2018-12-09T11:06:45.769Z,981.92
2018-12-09T11:07:46.040Z,981.91
2018-12-09T11:08:45.805Z,981.87
2018-12-09T11:09:45.822Z,981.88
2018-12-09T11:10:45.849Z,981.86
2018-12-09T11:11:45.864Z,981.87
2018-12-09T11:12:45.883Z,981.91
2018-12-09T11:13:45.906Z,981.87
2018-12-09T11:14:45.944Z,981.92
2018-12-09T11:15:45.934Z,981.83
2018-12-09T11:16:45.961Z,981.87
2018-12-09T11:17:45.966Z,981.88
2018-12-09T11:18:45.983Z,981.87
2018-12-09T11:19:46.013Z,981.99
2018-12-09T11:20:46.023Z,981.96
2018-12-09T11:21:46.040Z,981.99
2018-12-09T11:22:46.056Z,981.97
2018-12-09T11:23:46.190Z,981.96
2018-12-09T11:24:46.116Z,982.06
2018-12-09T11:25:46.120Z,981.95
2018-12-09T11:26:46.129Z,982.08
2018-12-09T11:27:46.147Z,982.00
2018-12-09T11:28:46.169Z,982.02
2018-12-09T11:29:46.179Z,982.04
2018-12-09T11:30:46.200Z,982.06
2018-12-09T11:31:46.217Z,982.13
2018-12-09T11:32:46.233Z,982.09
2018-12-09T11:33:46.262Z,982.14
2018-12-09T11:34:46.275Z,982.18
2018-12-09T11:35:46.293Z,982.11
2018-12-09T11:36:46.308Z,982.18
2018-12-09T11:37:46.328Z,982.18
2018-12-09T11:38:46.352Z,982.24
2018-12-09T11:39:46.364Z,982.19
2018-12-09T11:40:46.395Z,982.27
2018-12-09T11:41:46.405Z,982.19
2018-12-09T11:42:46.418Z,982.23
2018-12-09T11:43:46.437Z,982.23
2018-12-09T11:44:46.460Z,982.27
2018-12-09T11:45:46.468Z,982.26
2018-12-09T11:46:46.486Z,982.31
2018-12-09T11:47:46.527Z,982.34
2018-12-09T11:48:46.525Z,982.31
2018-12-09T11:49:46.546Z,982.34
2018-12-09T11:50:46.559Z,982.31
2018-12-09T11:51:46.577Z,982.32
2018-12-09T11:52:46.595Z,982.29
2018-12-09T11:53:46.612Z,982.34
2018-12-09T11:54:46.636Z,982.38
2018-12-09T11:55:46.665Z,982.35
2018-12-09T11:56:46.669Z,982.36
2018-12-09T11:57:46.687Z,982.48
2018-12-09T11:58:46.712Z,982.32
2018-12-09T11:59:46.718Z,982.32
2018-12-09T12:00:46.737Z,982.40
2018-12-09T12:01:46.784Z,982.36
2018-12-09T12:02:46.773Z,982.38
2018-12-09T12:03:46.917Z,982.41
2018-12-09T12:04:46.821Z,982.45
2018-12-09T12:05:46.828Z,982.51
2018-12-09T12:06:46.840Z,982.53
2018-12-09T12:07:46.865Z,982.57
2018-12-09T12:08:46.885Z,982.55
2018-12-09T12:09:46.902Z,982.59
2018-12-09T12:10:46.914Z,982.62
2018-12-09T12:11:46.934Z,982.59
2018-12-09T12:12:46.950Z,982.56
2018-12-09T12:13:46.975Z,982.51
2018-12-09T12:14:46.988Z,982.59
2018-12-09T12:15:47.023Z,982.62
2018-12-09T12:16:47.028Z,982.58
2018-12-09T12:17:47.042Z,982.60
2018-12-09T12:18:47.065Z,982.59
2018-12-09T12:19:47.079Z,982.59
2018-12-09T12:20:47.092Z,982.65
2018-12-09T12:21:47.112Z,982.57
2018-12-09T12:22:47.137Z,982.67
2018-12-09T12:23:47.150Z,982.71
2018-12-09T12:24:47.165Z,982.78
2018-12-09T12:25:47.183Z,982.73
2018-12-09T12:26:47.210Z,982.78
2018-12-09T12:27:47.229Z,982.74
2018-12-09T12:28:47.243Z,982.71